Time;durP1;ratioP1;P1;durP2;ratioP2;P2;SDS_P1;SDS_P2;PMS_P1;PMS_P2;Temp;Humidity;BMP_temperature;BMP_pressure;BME280_temperature;BME280_humidity;BME280_pressure;Samples;Min_cycle;Max_cycle;Signal;HPM_P1;HPM_P2
2023/08/16 00:01:10;;;;;;;4.37;2.70;;;18.40;99.90;;;;;;5078054;28;20506;-80
2023/08/16 00:03:40;;;;;;;7.33;3.40;;;18.50;99.90;;;;;;5076098;28;20476;-80
2023/08/16 00:06:10;;;;;;;4.93;2.90;;;18.40;99.90;;;;;;5087327;28;20448;-79
2023/08/16 00:08:39;;;;;;;7.93;3.10;;;18.40;99.90;;;;;;5083707;28;20855;-81
2023/08/16 00:11:06;;;;;;;6.30;3.30;;;18.40;99.90;;;;;;5084312;28;20459;-80
2023/08/16 00:13:34;;;;;;;6.17;3.03;;;18.40;99.90;;;;;;5080532;28;20470;-79
2023/08/16 00:16:01;;;;;;;7.30;4.57;;;18.40;99.90;;;;;;5078911;28;20441;-79
2023/08/16 00:18:29;;;;;;;7.20;2.50;;;18.40;99.90;;;;;;5082195;28;20576;-80
2023/08/16 00:20:57;;;;;;;9.30;3.60;;;18.40;99.90;;;;;;5075540;28;20460;-78
2023/08/16 00:23:24;;;;;;;6.10;3.10;;;18.40;99.90;;;;;;5085512;28;20479;-78
2023/08/16 00:25:51;;;;;;;6.60;2.80;;;18.30;99.90;;;;;;5083242;28;20468;-78
2023/08/16 00:28:25;;;;;;;3.40;2.97;;;18.30;99.90;;;;;;5088730;28;20474;-79
2023/08/16 00:30:53;;;;;;;6.27;4.20;;;18.20;99.90;;;;;;5076358;28;20824;-79
2023/08/16 00:33:21;;;;;;;7.43;3.37;;;18.10;99.90;;;;;;5062788;28;20557;-79
2023/08/16 00:35:48;;;;;;;4.90;3.27;;;18.20;99.90;;;;;;5074541;28;20433;-80
2023/08/16 00:38:16;;;;;;;9.53;4.17;;;18.10;99.90;;;;;;5090995;28;20515;-80
2023/08/16 00:40:48;;;;;;;7.37;3.10;;;18.10;99.90;;;;;;5082034;28;20625;-80
2023/08/16 00:43:15;;;;;;;5.07;3.30;;;18.10;99.90;;;;;;5087834;28;20825;-78
2023/08/16 00:45:43;;;;;;;5.33;3.37;;;18.10;99.90;;;;;;5073729;28;20449;-80
2023/08/16 00:48:10;;;;;;;4.43;2.90;;;18.10;99.90;;;;;;5072635;28;20447;-79
2023/08/16 00:50:37;;;;;;;7.57;3.70;;;18.10;99.90;;;;;;5082638;28;20455;-80
2023/08/16 00:53:06;;;;;;;5.77;3.20;;;18.10;99.90;;;;;;5081781;28;20921;-79
2023/08/16 00:55:34;;;;;;;7.43;3.30;;;18.10;99.90;;;;;;5083854;28;20954;-80
2023/08/16 00:58:01;;;;;;;8.10;4.60;;;18.10;99.90;;;;;;5079869;28;20561;-79
2023/08/16 01:00:30;;;;;;;6.43;4.07;;;18.00;99.90;;;;;;5081619;28;20477;-81
2023/08/16 01:02:56;;;;;;;5.23;2.90;;;18.10;99.90;;;;;;5082207;28;20519;-79
2023/08/16 01:05:24;;;;;;;5.47;3.10;;;18.00;99.90;;;;;;5079297;28;20546;-79
2023/08/16 01:07:51;;;;;;;6.07;3.20;;;18.10;99.90;;;;;;5088680;28;20466;-80
2023/08/16 01:10:18;;;;;;;6.23;3.50;;;18.10;99.90;;;;;;5072273;28;20473;-80
2023/08/16 01:12:52;;;;;;;6.37;3.77;;;18.00;99.90;;;;;;5086054;28;20447;-79
2023/08/16 01:15:25;;;;;;;4.07;3.50;;;18.00;99.90;;;;;;5070259;28;20479;-79
2023/08/16 01:17:54;;;;;;;7.00;3.70;;;18.00;99.90;;;;;;5053235;28;21005;-79
2023/08/16 01:20:23;;;;;;;7.80;3.97;;;18.00;99.90;;;;;;5079344;28;20447;-79
2023/08/16 01:22:59;;;;;;;7.23;3.27;;;18.00;99.90;;;;;;5077393;28;20440;-79
2023/08/16 01:25:35;;;;;;;8.97;3.70;;;17.90;99.90;;;;;;5071646;28;20508;-79
2023/08/16 01:28:04;;;;;;;8.27;3.60;;;17.90;99.90;;;;;;5079293;28;20439;-79
2023/08/16 01:30:31;;;;;;;9.10;3.93;;;17.80;99.90;;;;;;5080249;28;20439;-79
2023/08/16 01:33:07;;;;;;;9.93;4.80;;;17.80;99.90;;;;;;5077419;28;20445;-79
2023/08/16 01:35:34;;;;;;;10.80;4.23;;;17.70;99.90;;;;;;5072560;28;20450;-80
2023/08/16 01:38:03;;;;;;;11.10;3.90;;;17.70;99.90;;;;;;5084112;28;20475;-80
2023/08/16 01:40:34;;;;;;;5.33;3.90;;;17.80;99.90;;;;;;5077772;28;20482;-79
2023/08/16 01:43:07;;;;;;;9.50;4.80;;;17.80;99.90;;;;;;5067492;28;20451;-79
2023/08/16 01:45:35;;;;;;;7.40;4.43;;;17.70;99.90;;;;;;5076210;28;20472;-80
2023/08/16 01:48:04;;;;;;;6.07;4.13;;;17.80;99.90;;;;;;5070736;28;20428;-80
2023/08/16 01:50:31;;;;;;;9.60;4.80;;;17.80;99.90;;;;;;5078145;28;20518;-79
2023/08/16 01:52:59;;;;;;;8.83;5.40;;;17.80;99.90;;;;;;5074301;28;20520;-80
2023/08/16 01:55:26;;;;;;;8.77;5.40;;;17.90;99.90;;;;;;5072398;28;20526;-80
2023/08/16 01:57:54;;;;;;;11.20;4.30;;;17.90;99.90;;;;;;5081268;28;20485;-79
2023/08/16 02:00:22;;;;;;;5.50;4.40;;;17.90;99.90;;;;;;5074708;28;20854;-80
2023/08/16 02:02:49;;;;;;;12.53;5.40;;;17.80;99.90;;;;;;5069275;28;20492;-79
2023/08/16 02:05:16;;;;;;;9.20;4.63;;;17.80;99.90;;;;;;5068707;28;20527;-80
2023/08/16 02:07:43;;;;;;;6.30;5.47;;;17.80;99.90;;;;;;5090167;28;20511;-80
2023/08/16 02:10:10;;;;;;;8.67;5.50;;;17.80;99.90;;;;;;5085548;28;21130;-80
2023/08/16 02:12:37;;;;;;;15.70;6.40;;;17.70;99.90;;;;;;5082279;28;20528;-79
2023/08/16 02:15:04;;;;;;;7.10;4.70;;;17.70;99.90;;;;;;5089260;28;20510;-79
2023/08/16 02:17:33;;;;;;;9.93;5.50;;;17.70;99.90;;;;;;5079535;28;20504;-80
2023/08/16 02:19:59;;;;;;;14.77;5.72;;;17.70;99.90;;;;;;5090166;28;20527;-79
2023/08/16 02:22:27;;;;;;;12.60;5.20;;;17.60;99.90;;;;;;5086052;28;20583;-78
2023/08/16 02:24:54;;;;;;;10.23;6.60;;;17.60;99.90;;;;;;5074340;28;20505;-79
2023/08/16 02:27:20;;;;;;;14.00;5.43;;;17.60;99.90;;;;;;5089361;28;20471;-79
2023/08/16 02:29:47;;;;;;;11.10;5.30;;;17.50;99.90;;;;;;5080662;28;20458;-79
2023/08/16 02:32:14;;;;;;;8.60;4.60;;;17.60;99.90;;;;;;5085047;28;20525;-77
2023/08/16 02:34:43;;;;;;;9.77;5.60;;;17.60;99.90;;;;;;5073231;28;20475;-76
2023/08/16 02:37:10;;;;;;;12.13;5.77;;;17.60;99.90;;;;;;5084131;28;20542;-78
2023/08/16 02:39:36;;;;;;;11.83;4.70;;;17.60;99.90;;;;;;5083609;28;20484;-77
2023/08/16 02:42:04;;;;;;;12.37;5.37;;;17.60;99.90;;;;;;5075772;28;20476;-78
2023/08/16 02:44:30;;;;;;;11.17;5.87;;;17.60;99.90;;;;;;5079567;28;20499;-77
2023/08/16 02:46:57;;;;;;;6.97;5.50;;;17.60;99.90;;;;;;5064253;28;20848;-78
2023/08/16 02:49:24;;;;;;;7.27;5.63;;;17.50;99.90;;;;;;5085184;28;20530;-77
2023/08/16 02:51:52;;;;;;;7.50;4.87;;;17.60;99.90;;;;;;5073845;28;20529;-78
2023/08/16 02:54:19;;;;;;;8.97;5.03;;;17.60;99.90;;;;;;5076253;28;20559;-78
2023/08/16 02:56:46;;;;;;;7.83;5.13;;;17.60;99.90;;;;;;5071363;28;20455;-78
2023/08/16 02:59:16;;;;;;;11.73;5.77;;;17.60;99.90;;;;;;5069450;28;20981;-78
2023/08/16 03:01:43;;;;;;;11.80;5.70;;;17.50;99.90;;;;;;5073603;28;20454;-77
2023/08/16 03:04:10;;;;;;;5.00;4.50;;;17.50;99.90;;;;;;5079608;28;20543;-77
2023/08/16 03:06:37;;;;;;;9.33;5.10;;;17.50;99.90;;;;;;5084925;28;20231;-77
2023/08/16 03:09:06;;;;;;;12.93;5.00;;;17.50;99.90;;;;;;5080709;28;20436;-78
2023/08/16 03:11:33;;;;;;;7.50;4.90;;;17.50;99.90;;;;;;5076815;28;20479;-78
2023/08/16 03:13:59;;;;;;;8.20;4.50;;;17.50;99.90;;;;;;5088100;28;20463;-77
2023/08/16 03:16:28;;;;;;;6.13;4.93;;;17.50;99.90;;;;;;5086582;28;20525;-78
2023/08/16 03:18:56;;;;;;;6.07;5.07;;;17.40;99.90;;;;;;5078765;28;20467;-78
2023/08/16 03:21:24;;;;;;;10.03;5.20;;;17.40;99.90;;;;;;5089748;28;20482;-78
2023/08/16 03:23:51;;;;;;;8.27;6.03;;;17.30;99.90;;;;;;5085617;28;20520;-78
2023/08/16 03:26:19;;;;;;;6.07;5.47;;;17.30;99.90;;;;;;5088316;28;20482;-78
2023/08/16 03:28:46;;;;;;;9.53;5.27;;;17.20;99.90;;;;;;5083460;28;20514;-78
2023/08/16 03:31:13;;;;;;;9.68;5.63;;;17.20;99.90;;;;;;5083258;28;20520;-78
2023/08/16 03:33:40;;;;;;;13.30;6.53;;;17.20;99.90;;;;;;5089588;28;20270;-78
2023/08/16 03:36:07;;;;;;;12.07;6.97;;;17.20;99.90;;;;;;5084759;28;20445;-78
2023/08/16 03:38:34;;;;;;;11.60;5.45;;;17.10;99.90;;;;;;5077571;28;20558;-78
2023/08/16 03:41:01;;;;;;;8.43;6.30;;;17.10;99.90;;;;;;5084461;28;20235;-78
2023/08/16 03:43:31;;;;;;;7.65;6.85;;;17.10;99.90;;;;;;5083588;28;20469;-78
2023/08/16 03:45:58;;;;;;;13.65;6.20;;;17.00;99.90;;;;;;5082324;28;20198;-79
2023/08/16 03:48:25;;;;;;;8.10;6.33;;;17.00;99.90;;;;;;5074232;28;20233;-77
2023/08/16 03:50:51;;;;;;;13.97;7.87;;;17.00;99.90;;;;;;5083989;28;20523;-78
2023/08/16 03:53:18;;;;;;;9.20;6.80;;;17.00;99.90;;;;;;5082277;28;20543;-79
2023/08/16 03:55:46;;;;;;;9.20;6.27;;;16.90;99.90;;;;;;5087273;28;20454;-79
2023/08/16 03:58:13;;;;;;;7.80;6.38;;;17.00;99.90;;;;;;5083498;28;20473;-79
2023/08/16 04:00:41;;;;;;;8.67;5.97;;;17.00;99.90;;;;;;5069987;28;20547;-78
2023/08/16 04:03:08;;;;;;;10.30;6.15;;;17.00;99.90;;;;;;5085256;28;20536;-79
2023/08/16 04:05:35;;;;;;;8.70;6.17;;;17.00;99.90;;;;;;5080445;28;20284;-79
2023/08/16 04:08:02;;;;;;;6.65;5.95;;;17.00;99.90;;;;;;5081427;28;20534;-78
2023/08/16 04:10:29;;;;;;;14.20;6.50;;;17.10;99.90;;;;;;5077394;28;20289;-79
2023/08/16 04:12:56;;;;;;;8.68;6.38;;;17.10;99.90;;;;;;5089091;28;20469;-78
2023/08/16 04:15:23;;;;;;;8.80;6.90;;;17.20;99.90;;;;;;5083164;28;20412;-79
2023/08/16 04:17:51;;;;;;;12.23;6.53;;;17.20;99.90;;;;;;5082203;28;20535;-80
2023/08/16 04:20:19;;;;;;;13.90;7.20;;;17.20;99.90;;;;;;5088212;28;20527;-80
2023/08/16 04:22:46;;;;;;;9.73;6.50;;;17.20;99.90;;;;;;5078136;28;20456;-79
2023/08/16 04:25:14;;;;;;;9.87;6.40;;;17.30;99.90;;;;;;5090824;28;20438;-78
2023/08/16 04:27:42;;;;;;;8.40;6.50;;;17.30;99.90;;;;;;5080562;28;20473;-79
2023/08/16 04:30:09;;;;;;;9.20;6.77;;;17.30;99.90;;;;;;5073734;28;20463;-78
2023/08/16 04:32:37;;;;;;;9.37;6.70;;;17.30;99.90;;;;;;5079714;28;20444;-78
2023/08/16 04:35:06;;;;;;;11.47;6.53;;;17.40;99.90;;;;;;5083526;28;20879;-79
2023/08/16 04:37:32;;;;;;;13.33;7.10;;;17.40;99.90;;;;;;5080926;28;20447;-77
2023/08/16 04:39:59;;;;;;;8.00;6.77;;;17.60;99.90;;;;;;5073947;28;20473;-78
2023/08/16 04:42:27;;;;;;;11.57;7.53;;;17.60;99.90;;;;;;5086999;28;20534;-77
2023/08/16 04:44:55;;;;;;;8.00;6.57;;;17.70;99.90;;;;;;5082481;28;20809;-78
2023/08/16 04:47:22;;;;;;;14.93;6.83;;;17.70;99.90;;;;;;5099270;28;20445;-79
2023/08/16 04:49:51;;;;;;;14.13;5.90;;;17.70;99.90;;;;;;5097401;28;20468;-79
2023/08/16 04:52:19;;;;;;;6.70;5.47;;;17.80;99.90;;;;;;5089285;28;20465;-79
2023/08/16 04:54:46;;;;;;;12.53;7.00;;;17.90;99.90;;;;;;5094205;28;20526;-76
2023/08/16 04:57:14;;;;;;;6.93;6.20;;;17.90;99.90;;;;;;5094266;28;20503;-78
2023/08/16 04:59:41;;;;;;;23.03;10.47;;;17.90;99.90;;;;;;5105106;28;20487;-78
2023/08/16 05:02:08;;;;;;;15.57;8.33;;;18.00;99.90;;;;;;5099571;28;20449;-78
2023/08/16 05:04:36;;;;;;;8.00;5.80;;;18.00;99.90;;;;;;5103632;28;20456;-78
2023/08/16 05:07:03;;;;;;;10.13;7.10;;;18.00;99.90;;;;;;5104136;28;20469;-80
2023/08/16 05:09:31;;;;;;;12.93;7.53;;;18.00;99.90;;;;;;5100899;28;20439;-80
2023/08/16 05:11:58;;;;;;;9.43;6.70;;;18.10;99.90;;;;;;5105094;28;20502;-78
2023/08/16 05:14:25;;;;;;;11.50;6.50;;;18.10;99.90;;;;;;5105651;28;20451;-78
2023/08/16 05:16:52;;;;;;;10.17;7.80;;;18.20;99.90;;;;;;5088741;28;20522;-78
2023/08/16 05:19:19;;;;;;;16.13;7.03;;;18.20;99.90;;;;;;5071530;28;21057;-79
2023/08/16 05:21:47;;;;;;;11.30;5.70;;;18.20;99.90;;;;;;5090077;28;20436;-80
2023/08/16 05:24:14;;;;;;;13.20;8.90;;;18.30;99.90;;;;;;5084197;28;20539;-80
2023/08/16 05:26:48;;;;;;;13.00;6.63;;;18.30;99.90;;;;;;5074322;28;20925;-80
2023/08/16 05:29:15;;;;;;;8.80;7.43;;;18.40;99.90;;;;;;5077011;28;20459;-80
2023/08/16 05:31:43;;;;;;;13.13;6.13;;;18.50;99.90;;;;;;5074608;28;20491;-79
2023/08/16 05:34:10;;;;;;;6.33;4.27;;;18.60;99.90;;;;;;5083920;28;20507;-80
2023/08/16 05:36:47;;;;;;;11.97;6.13;;;18.60;99.90;;;;;;5086764;28;20994;-83
2023/08/16 05:39:14;;;;;;;11.43;5.77;;;18.70;99.90;;;;;;5065913;28;20480;-80
2023/08/16 05:41:41;;;;;;;9.90;5.50;;;18.80;99.90;;;;;;5071528;28;20450;-82
2023/08/16 05:44:09;;;;;;;18.40;6.07;;;18.90;99.90;;;;;;5068114;28;21003;-80
2023/08/16 05:46:36;;;;;;;5.53;5.00;;;19.10;99.90;;;;;;5060659;28;20453;-81
2023/08/16 05:49:05;;;;;;;6.93;5.50;;;19.40;99.90;;;;;;5077580;28;20481;-79
2023/08/16 05:51:32;;;;;;;12.10;6.00;;;19.60;99.90;;;;;;5072108;28;20515;-79
2023/08/16 05:53:59;;;;;;;16.20;6.63;;;19.60;99.90;;;;;;5079604;28;20515;-79
2023/08/16 05:56:26;;;;;;;13.57;5.83;;;19.70;99.90;;;;;;5077393;28;20454;-79
2023/08/16 05:58:53;;;;;;;13.30;5.93;;;20.00;99.90;;;;;;5070861;28;20895;-79
2023/08/16 06:01:22;;;;;;;12.90;6.27;;;20.20;99.90;;;;;;5075686;28;20461;-82
2023/08/16 06:03:49;;;;;;;8.93;4.47;;;20.50;99.90;;;;;;5072262;28;20459;-82
2023/08/16 06:06:16;;;;;;;6.13;4.37;;;21.40;99.90;;;;;;5068662;28;20480;-83
2023/08/16 06:08:43;;;;;;;6.03;4.40;;;22.20;99.90;;;;;;5071145;28;20508;-80
2023/08/16 06:11:09;;;;;;;10.67;5.07;;;22.60;99.90;;;;;;5080418;28;20519;-80
2023/08/16 06:13:37;;;;;;;6.77;4.37;;;22.60;99.90;;;;;;5080014;28;20554;-81
2023/08/16 06:16:04;;;;;;;7.30;5.07;;;22.50;99.90;;;;;;5079800;28;20479;-81
2023/08/16 06:18:32;;;;;;;10.23;5.10;;;22.50;99.90;;;;;;5078553;28;20519;-80
2023/08/16 06:20:59;;;;;;;7.90;4.93;;;22.60;99.90;;;;;;5074686;28;20966;-81
2023/08/16 06:23:26;;;;;;;11.10;5.00;;;22.60;99.90;;;;;;5084424;28;20547;-81
2023/08/16 06:25:53;;;;;;;9.33;4.10;;;23.20;99.90;;;;;;5074991;28;20532;-79
2023/08/16 06:28:21;;;;;;;6.83;3.97;;;24.30;99.90;;;;;;5077066;28;20456;-77
2023/08/16 06:30:48;;;;;;;9.80;3.60;;;25.20;99.90;;;;;;5077847;28;20506;-78
2023/08/16 06:33:15;;;;;;;6.67;4.10;;;26.00;99.90;;;;;;5078082;28;20452;-78
2023/08/16 06:35:43;;;;;;;10.57;3.67;;;27.00;99.90;;;;;;5085812;28;20483;-78
2023/08/16 06:38:11;;;;;;;4.27;3.07;;;27.10;99.90;;;;;;5079231;28;20446;-77
2023/08/16 06:40:38;;;;;;;6.17;3.30;;;27.50;99.60;;;;;;5083157;28;20518;-79
2023/08/16 06:43:05;;;;;;;6.17;2.63;;;28.40;96.90;;;;;;5075532;28;20460;-78
2023/08/16 06:45:32;;;;;;;2.80;1.80;;;29.50;94.70;;;;;;5081398;28;20854;-77
2023/08/16 06:47:59;;;;;;;5.27;3.20;;;30.30;92.50;;;;;;5086436;28;20838;-78
2023/08/16 06:50:27;;;;;;;6.07;3.40;;;30.90;91.00;;;;;;5081134;28;20797;-76
2023/08/16 06:52:57;;;;;;;9.00;3.50;;;31.70;89.10;;;;;;5080757;28;20436;-78
2023/08/16 06:55:23;;;;;;;6.40;2.97;;;32.20;86.40;;;;;;5077604;28;20967;-77
2023/08/16 06:57:51;;;;;;;5.27;2.80;;;32.70;85.30;;;;;;5087188;28;20527;-77
2023/08/16 07:00:19;;;;;;;4.03;2.60;;;32.70;83.60;;;;;;5080811;28;20555;-77
2023/08/16 07:02:48;;;;;;;5.93;2.60;;;32.40;84.40;;;;;;5076026;28;20452;-77
2023/08/16 07:05:15;;;;;;;6.20;2.40;;;32.50;83.70;;;;;;5077306;28;20456;-76
2023/08/16 07:07:43;;;;;;;4.83;2.13;;;32.70;83.00;;;;;;5086273;28;20458;-75
2023/08/16 07:10:11;;;;;;;6.67;2.60;;;32.70;83.00;;;;;;5082876;28;20444;-75
2023/08/16 07:12:39;;;;;;;4.00;1.70;;;32.90;82.50;;;;;;5088814;28;20519;-75
2023/08/16 07:15:07;;;;;;;5.30;2.37;;;33.30;80.90;;;;;;5077642;28;20544;-76
2023/08/16 07:17:34;;;;;;;5.50;2.10;;;33.60;80.50;;;;;;5069162;28;20984;-77
2023/08/16 07:20:17;;;;;;;5.10;2.30;;;33.40;79.50;;;;;;5080223;28;20566;-76
2023/08/16 07:22:44;;;;;;;5.47;2.33;;;34.00;78.90;;;;;;5060613;28;20446;-77
2023/08/16 07:25:16;;;;;;;5.53;2.30;;;34.10;77.70;;;;;;5083393;28;20436;-76
2023/08/16 07:27:43;;;;;;;5.63;2.60;;;33.60;78.10;;;;;;5069696;28;20441;-76
2023/08/16 07:30:13;;;;;;;4.63;2.13;;;33.00;78.30;;;;;;5078597;28;20430;-76
2023/08/16 07:32:40;;;;;;;4.37;1.93;;;33.10;79.70;;;;;;5081484;28;20433;-75
2023/08/16 07:35:09;;;;;;;2.93;2.10;;;33.30;78.30;;;;;;5080153;28;20524;-76
2023/08/16 07:37:36;;;;;;;8.07;1.70;;;32.70;79.30;;;;;;5084698;28;20510;-76
2023/08/16 07:40:04;;;;;;;5.00;2.00;;;32.10;79.80;;;;;;5077275;28;20926;-76
2023/08/16 07:42:33;;;;;;;3.60;2.20;;;32.10;81.80;;;;;;5066769;28;20782;-76
2023/08/16 07:45:02;;;;;;;3.33;1.57;;;32.30;80.30;;;;;;5082032;28;20464;-76
2023/08/16 07:47:29;;;;;;;5.43;2.30;;;32.50;80.40;;;;;;5068459;28;20446;-76
2023/08/16 07:50:05;;;;;;;3.53;2.10;;;32.20;79.70;;;;;;5075224;28;20525;-76
2023/08/16 07:52:32;;;;;;;3.57;1.40;;;31.60;80.80;;;;;;5082559;28;20831;-76
2023/08/16 07:54:59;;;;;;;5.37;2.23;;;30.80;82.80;;;;;;5077935;28;20545;-76
2023/08/16 07:57:26;;;;;;;4.07;2.47;;;30.50;84.70;;;;;;5072174;28;20443;-76
2023/08/16 07:59:55;;;;;;;7.13;2.80;;;30.50;84.80;;;;;;5077389;28;20516;-76
2023/08/16 08:02:22;;;;;;;8.70;2.20;;;30.50;85.10;;;;;;5071061;28;20451;-76
2023/08/16 08:04:54;;;;;;;4.33;1.80;;;30.50;84.50;;;;;;5075228;28;20462;-76
2023/08/16 08:07:22;;;;;;;7.00;2.17;;;30.60;85.40;;;;;;5077765;28;20445;-76
2023/08/16 08:09:49;;;;;;;4.53;1.90;;;30.90;85.00;;;;;;5079106;28;20441;-76
2023/08/16 08:12:16;;;;;;;4.30;1.90;;;31.30;83.10;;;;;;5075962;28;20448;-76
2023/08/16 08:14:43;;;;;;;4.00;2.10;;;31.60;83.90;;;;;;5082030;28;20543;-78
2023/08/16 08:17:12;;;;;;;3.43;2.00;;;32.00;81.70;;;;;;5079295;28;20638;-78
2023/08/16 08:19:38;;;;;;;4.20;2.77;;;31.70;82.10;;;;;;5080579;28;20494;-77
2023/08/16 08:22:06;;;;;;;3.83;1.60;;;31.30;82.60;;;;;;5086527;28;20465;-77
2023/08/16 08:24:33;;;;;;;4.77;1.70;;;30.90;83.70;;;;;;5080735;28;20453;-78
2023/08/16 08:27:00;;;;;;;2.90;1.70;;;30.50;84.80;;;;;;5078979;28;20969;-76
2023/08/16 08:29:27;;;;;;;4.00;2.00;;;30.80;84.60;;;;;;5076188;28;20480;-77
2023/08/16 08:31:54;;;;;;;3.83;1.37;;;31.00;83.40;;;;;;5081746;28;20496;-77
2023/08/16 08:34:24;;;;;;;4.80;2.27;;;31.30;82.40;;;;;;5081675;28;20465;-77
2023/08/16 08:36:51;;;;;;;4.10;2.00;;;31.10;83.70;;;;;;5080508;28;20456;-78
2023/08/16 08:39:19;;;;;;;4.67;1.87;;;30.80;84.20;;;;;;5087769;28;20471;-78
2023/08/16 08:41:48;;;;;;;4.73;1.73;;;30.20;86.10;;;;;;5071186;28;20434;-75
2023/08/16 08:44:16;;;;;;;3.60;1.80;;;29.80;88.20;;;;;;5086788;28;20499;-75
2023/08/16 08:46:44;;;;;;;4.30;1.70;;;29.10;88.80;;;;;;5074968;28;21010;-75
2023/08/16 08:49:12;;;;;;;6.87;2.50;;;28.50;90.10;;;;;;5079643;28;20531;-75
2023/08/16 08:51:42;;;;;;;2.57;1.67;;;28.40;90.60;;;;;;5084033;28;20500;-75
2023/08/16 08:54:09;;;;;;;6.63;2.50;;;28.10;90.70;;;;;;5075245;28;20478;-75
2023/08/16 08:56:36;;;;;;;3.30;1.93;;;27.90;91.10;;;;;;5074460;28;20990;-74
2023/08/16 08:59:04;;;;;;;3.23;1.67;;;28.00;91.10;;;;;;5071222;28;20489;-75
2023/08/16 09:01:32;;;;;;;9.07;2.20;;;27.70;90.80;;;;;;5073608;28;20492;-76
2023/08/16 09:04:00;;;;;;;7.70;2.00;;;27.60;91.10;;;;;;5064734;28;20508;-76
2023/08/16 09:06:27;;;;;;;3.30;1.50;;;27.70;91.30;;;;;;5071921;28;20466;-75
2023/08/16 09:08:57;;;;;;;5.90;1.73;;;28.00;90.80;;;;;;5072156;28;20535;-76
2023/08/16 09:11:25;;;;;;;5.30;2.43;;;28.20;90.50;;;;;;5072458;28;20503;-76
2023/08/16 09:13:56;;;;;;;4.33;2.30;;;28.10;90.50;;;;;;5076047;28;20465;-76
2023/08/16 09:16:23;;;;;;;4.23;2.00;;;28.60;90.00;;;;;;5085235;28;20515;-76
2023/08/16 09:18:52;;;;;;;3.13;1.20;;;28.80;87.50;;;;;;5076217;28;20516;-76
2023/08/16 09:21:19;;;;;;;4.13;1.83;;;28.80;87.90;;;;;;5085505;28;20483;-75
2023/08/16 09:23:55;;;;;;;4.73;2.10;;;29.20;87.00;;;;;;5080693;28;20470;-75
2023/08/16 09:26:24;;;;;;;4.00;1.87;;;29.30;88.00;;;;;;5081034;28;20458;-75
2023/08/16 09:28:57;;;;;;;3.20;1.80;;;29.00;87.50;;;;;;5083177;28;20477;-75
2023/08/16 09:31:24;;;;;;;6.10;2.13;;;28.90;88.80;;;;;;5077567;28;20439;-77
2023/08/16 09:33:54;;;;;;;4.10;2.00;;;28.70;89.50;;;;;;5077068;28;20551;-76
2023/08/16 09:36:22;;;;;;;9.20;2.27;;;28.50;90.30;;;;;;5087442;28;20975;-75
2023/08/16 09:38:49;;;;;;;7.50;2.30;;;28.10;91.00;;;;;;5086036;28;20441;-75
2023/08/16 09:41:19;;;;;;;7.13;2.47;;;27.60;91.00;;;;;;5080729;28;20477;-75
2023/08/16 09:43:47;;;;;;;5.17;2.40;;;27.10;91.60;;;;;;5082795;28;20497;-76
2023/08/16 09:46:20;;;;;;;3.90;2.47;;;26.80;92.30;;;;;;5086212;28;20442;-74
2023/08/16 09:48:47;;;;;;;4.70;2.50;;;26.50;93.00;;;;;;5074675;28;20528;-76
2023/08/16 09:51:14;;;;;;;4.27;2.00;;;26.30;93.20;;;;;;5069755;28;20449;-75
2023/08/16 09:53:47;;;;;;;7.17;2.70;;;26.10;94.20;;;;;;5074839;28;20503;-77
2023/08/16 09:56:17;;;;;;;4.93;2.33;;;25.80;94.30;;;;;;5072152;28;20996;-77
2023/08/16 09:58:44;;;;;;;3.33;2.00;;;25.70;95.00;;;;;;5082240;28;20449;-76
2023/08/16 10:01:13;;;;;;;7.23;2.60;;;25.60;95.40;;;;;;5075214;28;20566;-74
2023/08/16 10:03:40;;;;;;;2.87;1.50;;;25.70;95.70;;;;;;5077829;28;20547;-75
2023/08/16 10:06:08;;;;;;;5.00;1.60;;;25.70;95.60;;;;;;5073682;28;20491;-75
2023/08/16 10:08:36;;;;;;;3.63;2.00;;;25.70;95.60;;;;;;5064270;28;20448;-76
2023/08/16 10:11:03;;;;;;;3.20;2.10;;;25.80;95.70;;;;;;5075029;28;20447;-73
2023/08/16 10:13:31;;;;;;;4.80;1.87;;;25.90;95.60;;;;;;5079265;28;20496;-74
2023/08/16 10:15:58;;;;;;;7.30;2.13;;;26.00;95.30;;;;;;5075747;28;20438;-74
2023/08/16 10:18:29;;;;;;;5.10;2.10;;;25.90;95.00;;;;;;5072487;28;20471;-75
2023/08/16 10:21:00;;;;;;;3.53;1.97;;;25.90;95.40;;;;;;5079875;28;20509;-76
2023/08/16 10:23:29;;;;;;;7.63;3.60;;;25.80;95.60;;;;;;5067202;28;20462;-74
2023/08/16 10:26:01;;;;;;;5.00;2.63;;;25.80;95.50;;;;;;5070179;28;20567;-76
2023/08/16 10:28:29;;;;;;;5.47;2.30;;;25.70;95.40;;;;;;5078065;28;20781;-76
2023/08/16 10:30:59;;;;;;;7.17;2.57;;;25.60;95.80;;;;;;5073833;28;20441;-75
2023/08/16 10:33:33;;;;;;;4.73;2.10;;;25.50;95.90;;;;;;5070319;28;20491;-75
2023/08/16 10:36:01;;;;;;;6.17;2.80;;;25.30;96.10;;;;;;5076246;28;20542;-76
2023/08/16 10:38:35;;;;;;;6.10;2.73;;;25.30;96.60;;;;;;5081150;28;20445;-78
2023/08/16 10:41:02;;;;;;;6.47;1.80;;;25.20;97.00;;;;;;5079960;28;20490;-78
2023/08/16 10:43:35;;;;;;;4.33;2.70;;;25.20;96.80;;;;;;5078650;28;20477;-78
2023/08/16 10:46:02;;;;;;;2.10;1.47;;;25.20;96.70;;;;;;5076605;28;20449;-77
2023/08/16 10:48:36;;;;;;;8.50;2.37;;;25.20;96.70;;;;;;5070956;28;20541;-77
2023/08/16 10:51:04;;;;;;;4.47;1.50;;;25.10;96.80;;;;;;5080180;28;20449;-75
2023/08/16 10:53:33;;;;;;;3.53;2.03;;;25.10;96.50;;;;;;5065444;28;20466;-76
2023/08/16 10:56:05;;;;;;;3.90;2.07;;;25.10;96.20;;;;;;5075802;28;20450;-76
2023/08/16 10:58:33;;;;;;;3.90;2.40;;;25.20;96.20;;;;;;5072460;28;20532;-77
2023/08/16 11:01:04;;;;;;;2.53;1.90;;;25.20;96.30;;;;;;5080663;28;20516;-80
2023/08/16 11:03:33;;;;;;;6.60;2.10;;;25.20;96.10;;;;;;5076906;28;20475;-76
2023/08/16 11:06:01;;;;;;;2.77;2.33;;;25.20;96.10;;;;;;5067860;28;20531;-76
2023/08/16 11:08:31;;;;;;;4.83;2.60;;;25.30;96.30;;;;;;5071812;28;20475;-77
2023/08/16 11:10:58;;;;;;;3.33;1.70;;;25.30;95.80;;;;;;5082094;28;20444;-78
2023/08/16 11:13:27;;;;;;;3.23;1.80;;;25.30;95.90;;;;;;5075877;28;20633;-78
2023/08/16 11:15:55;;;;;;;5.17;2.03;;;25.30;95.90;;;;;;5076653;28;21014;-78
2023/08/16 11:18:27;;;;;;;3.93;2.10;;;25.30;96.10;;;;;;5079901;28;20538;-76
2023/08/16 11:20:59;;;;;;;4.30;1.97;;;25.40;95.90;;;;;;5077452;28;20511;-78
2023/08/16 11:23:31;;;;;;;3.17;2.03;;;25.60;95.90;;;;;;5087178;28;20467;-75
2023/08/16 11:26:00;;;;;;;4.30;2.47;;;25.60;95.30;;;;;;5077086;28;20451;-77
2023/08/16 11:28:28;;;;;;;5.70;2.70;;;25.50;95.10;;;;;;5075574;28;20438;-79
2023/08/16 11:30:58;;;;;;;4.30;2.37;;;25.50;95.20;;;;;;5075952;28;20434;-78
2023/08/16 11:33:25;;;;;;;5.33;2.47;;;25.50;95.20;;;;;;5073170;28;20463;-75
2023/08/16 11:35:55;;;;;;;4.03;2.50;;;25.40;95.50;;;;;;5082733;28;20483;-77
2023/08/16 11:38:23;;;;;;;5.10;2.67;;;25.30;95.70;;;;;;5077538;28;20510;-79
2023/08/16 11:40:50;;;;;;;4.43;1.53;;;25.30;95.40;;;;;;5084781;28;20507;-80
2023/08/16 11:43:17;;;;;;;5.63;2.03;;;25.30;94.90;;;;;;5072196;28;20482;-75
2023/08/16 11:45:51;;;;;;;3.37;2.07;;;25.30;95.10;;;;;;5072518;28;20835;-77
2023/08/16 11:48:18;;;;;;;3.07;2.10;;;25.30;95.60;;;;;;5080779;28;20456;-78
2023/08/16 11:50:46;;;;;;;4.33;2.10;;;25.30;95.30;;;;;;5078241;28;20476;-78
2023/08/16 11:53:16;;;;;;;4.13;2.67;;;25.30;95.40;;;;;;5072693;28;20985;-76
2023/08/16 11:55:56;;;;;;;7.50;2.03;;;25.20;95.20;;;;;;5093093;28;20440;-78
2023/08/16 11:58:23;;;;;;;2.37;1.60;;;25.20;94.40;;;;;;5071888;28;20933;-79
2023/08/16 12:00:52;;;;;;;6.13;2.90;;;25.30;95.10;;;;;;5081078;28;20488;-78
2023/08/16 12:03:19;;;;;;;2.50;1.80;;;25.30;95.50;;;;;;5098061;28;20994;-77
2023/08/16 12:05:48;;;;;;;3.90;2.33;;;25.30;95.60;;;;;;5094035;28;20448;-77
2023/08/16 12:08:21;;;;;;;5.17;2.10;;;25.30;96.40;;;;;;5089343;28;20492;-77
2023/08/16 12:10:54;;;;;;;4.77;2.33;;;25.10;96.90;;;;;;5068179;28;20503;-78
2023/08/16 12:13:24;;;;;;;7.63;2.47;;;24.90;97.00;;;;;;5078465;28;20466;-79
2023/08/16 12:15:51;;;;;;;5.53;2.80;;;24.70;97.60;;;;;;5085774;28;20437;-79
2023/08/16 12:18:22;;;;;;;5.47;2.50;;;24.50;97.70;;;;;;5079895;28;20452;-78
2023/08/16 12:20:52;;;;;;;3.97;2.10;;;24.30;98.20;;;;;;5071832;28;20528;-78
2023/08/16 12:23:21;;;;;;;2.80;2.00;;;24.20;98.30;;;;;;5082418;28;20468;-77
2023/08/16 12:25:48;;;;;;;3.23;1.90;;;24.10;98.70;;;;;;5083001;28;20441;-77
2023/08/16 12:28:22;;;;;;;5.17;2.57;;;24.10;98.70;;;;;;5071596;28;20475;-77
2023/08/16 12:30:49;;;;;;;4.10;2.63;;;24.00;99.10;;;;;;5074179;28;20451;-78
2023/08/16 12:33:17;;;;;;;4.60;2.27;;;23.90;99.20;;;;;;5067308;28;20484;-78
2023/08/16 12:35:44;;;;;;;6.53;2.53;;;23.90;99.10;;;;;;5080987;28;20495;-79
2023/08/16 12:38:12;;;;;;;4.20;2.60;;;24.00;99.20;;;;;;5088152;28;20535;-77
2023/08/16 12:40:41;;;;;;;5.53;2.43;;;24.00;98.90;;;;;;5085480;28;20455;-77
2023/08/16 12:43:10;;;;;;;9.77;2.83;;;24.10;99.00;;;;;;5072472;28;20538;-79
2023/08/16 12:45:38;;;;;;;2.83;2.13;;;24.20;99.00;;;;;;5060224;28;21010;-76
2023/08/16 12:48:06;;;;;;;4.10;2.90;;;24.20;98.50;;;;;;5081305;28;20499;-77
2023/08/16 12:50:33;;;;;;;4.93;2.30;;;24.30;98.10;;;;;;5079468;28;20440;-79